Time;durP1;ratioP1;P1;durP2;ratioP2;P2;SDS_P1;SDS_P2;PMS_P1;PMS_P2;Temp;Humidity;BMP_temperature;BMP_pressure;BME280_temperature;BME280_humidity;BME280_pressure;Samples;Min_cycle;Max_cycle;Signal;HPM_P1;HPM_P2
2021/01/07 00:01:16;;;;;;;4.57;2.92;;;3.40;82.50;;;;;;5013203;28;20030;-91
2021/01/07 00:07:36;;;;;;;;;;;;;;;;;;;;;
2021/01/07 00:10:36;;;;;;;4.65;2.60;;;3.40;82.60;;;;;;5021317;28;20374;-92
2021/01/07 00:13:04;;;;;;;3.67;2.28;;;3.40;83.20;;;;;;5016763;28;20047;-92
2021/01/07 00:15:29;;;;;;;3.30;2.50;;;3.40;82.50;;;;;;5006998;28;20464;-95
2021/01/07 00:17:55;;;;;;;4.45;2.50;;;3.40;82.50;;;;;;5004497;28;20036;-95
2021/01/07 00:20:21;;;;;;;4.55;3.15;;;3.40;82.50;;;;;;5007800;28;20398;-95
2021/01/07 00:22:51;;;;;;;5.63;2.75;;;3.40;82.50;;;;;;5013646;28;20027;-96
2021/01/07 00:25:18;;;;;;;3.63;2.55;;;3.40;82.70;;;;;;5017769;28;20142;-96
2021/01/07 00:27:44;;;;;;;3.60;2.55;;;3.40;82.70;;;;;;5014680;28;20050;-96
2021/01/07 00:30:10;;;;;;;4.90;2.90;;;3.30;82.60;;;;;;4992836;28;20105;-93
2021/01/07 00:32:36;;;;;;;5.63;2.70;;;3.30;82.60;;;;;;4993180;28;20396;-93
2021/01/07 00:35:02;;;;;;;3.40;2.30;;;3.30;82.60;;;;;;4993233;28;20030;-94
2021/01/07 00:37:27;;;;;;;5.10;2.50;;;3.30;82.80;;;;;;4994346;28;20499;-93
2021/01/07 00:39:53;;;;;;;4.32;2.90;;;3.30;82.80;;;;;;4993253;28;20034;-95
2021/01/07 00:42:18;;;;;;;3.55;2.20;;;3.30;82.80;;;;;;4994042;28;20117;-93
2021/01/07 00:44:45;;;;;;;4.30;2.58;;;3.30;82.70;;;;;;4993682;28;20026;-94
2021/01/07 00:47:10;;;;;;;3.55;2.38;;;3.30;82.60;;;;;;4993139;28;20022;-93
2021/01/07 00:49:36;;;;;;;2.97;2.20;;;3.30;82.70;;;;;;4993241;28;20106;-94
2021/01/07 00:52:02;;;;;;;2.33;1.90;;;3.30;82.70;;;;;;4993845;28;20049;-94
2021/01/07 00:54:29;;;;;;;5.90;3.05;;;3.30;82.70;;;;;;4992649;28;20043;-93
2021/01/07 00:56:55;;;;;;;3.58;2.25;;;3.40;82.80;;;;;;4993649;28;20416;-94
2021/01/07 00:59:20;;;;;;;3.10;2.22;;;3.30;82.70;;;;;;4993845;28;20023;-94
2021/01/07 01:01:47;;;;;;;3.63;2.40;;;3.40;82.80;;;;;;4992102;28;20489;-95
2021/01/07 01:04:13;;;;;;;4.95;3.10;;;3.40;82.70;;;;;;4992398;28;20023;-94
2021/01/07 01:06:39;;;;;;;4.00;2.55;;;3.30;82.70;;;;;;4992138;28;20026;-94
2021/01/07 01:09:06;;;;;;;3.33;2.55;;;3.30;82.80;;;;;;4992620;28;20045;-95
2021/01/07 01:11:45;;;;;;;4.88;3.42;;;3.30;82.90;;;;;;4992474;28;20022;-95
2021/01/07 01:14:15;;;;;;;3.42;2.55;;;3.30;83.00;;;;;;4991654;28;20030;-95
2021/01/07 01:16:41;;;;;;;3.08;2.10;;;3.30;83.00;;;;;;4991214;28;20105;-95
2021/01/07 01:19:07;;;;;;;4.68;2.50;;;3.30;83.00;;;;;;4994351;28;20023;-96
2021/01/07 01:21:33;;;;;;;3.20;2.38;;;3.20;83.00;;;;;;4993703;28;20026;-92
2021/01/07 01:23:59;;;;;;;3.42;2.20;;;3.20;83.00;;;;;;4993775;28;20559;-95
2021/01/07 01:26:24;;;;;;;2.83;2.10;;;3.30;83.10;;;;;;4997664;28;20473;-94
2021/01/07 01:28:51;;;;;;;4.43;2.78;;;3.20;83.10;;;;;;5014722;28;20033;-93
2021/01/07 01:31:16;;;;;;;3.63;2.55;;;3.20;83.10;;;;;;4992624;28;20034;-94
2021/01/07 01:33:42;;;;;;;3.83;2.60;;;3.20;83.20;;;;;;4993839;28;20018;-93
2021/01/07 01:36:08;;;;;;;3.22;2.40;;;3.20;83.20;;;;;;4993123;28;20101;-94
2021/01/07 01:38:34;;;;;;;5.20;2.88;;;3.10;83.30;;;;;;4987640;28;20026;-95
2021/01/07 01:41:01;;;;;;;3.00;2.40;;;3.20;83.40;;;;;;4992002;28;20443;-94
2021/01/07 01:43:27;;;;;;;3.13;2.33;;;3.20;83.40;;;;;;4990858;28;20046;-94
2021/01/07 01:45:52;;;;;;;2.70;2.20;;;3.20;83.40;;;;;;4990478;28;20057;-93
2021/01/07 01:48:18;;;;;;;2.80;2.05;;;3.20;83.40;;;;;;4991989;28;20029;-94
2021/01/07 01:50:44;;;;;;;3.97;2.55;;;3.30;83.40;;;;;;4991053;28;20113;-94
2021/01/07 01:53:09;;;;;;;5.63;2.40;;;3.30;83.30;;;;;;4992324;28;20022;-94
2021/01/07 01:55:35;;;;;;;4.55;2.88;;;3.30;83.30;;;;;;4992490;28;20038;-94
2021/01/07 01:58:02;;;;;;;3.88;2.63;;;3.30;83.30;;;;;;4991675;28;20065;-93
2021/01/07 02:00:28;;;;;;;4.55;2.95;;;3.30;83.30;;;;;;4993169;28;20125;-94
2021/01/07 02:02:53;;;;;;;5.88;3.33;;;3.30;83.40;;;;;;4993204;28;20088;-93
2021/01/07 02:05:19;;;;;;;4.55;2.88;;;3.30;83.40;;;;;;4994178;28;20107;-92
2021/01/07 02:07:45;;;;;;;5.22;3.30;;;3.30;83.40;;;;;;4993996;28;20058;-92
2021/01/07 02:10:12;;;;;;;5.00;2.92;;;3.30;83.40;;;;;;4994352;28;20038;-92
2021/01/07 02:12:43;;;;;;;5.13;2.70;;;3.30;83.40;;;;;;4994926;28;20018;-94
2021/01/07 02:15:10;;;;;;;4.80;3.22;;;3.30;83.40;;;;;;5016724;28;20029;-96
2021/01/07 02:17:35;;;;;;;5.32;3.47;;;3.40;83.40;;;;;;5018331;28;20025;-96
2021/01/07 02:20:01;;;;;;;4.68;3.20;;;3.30;83.30;;;;;;5017185;28;20093;-95
2021/01/07 02:22:26;;;;;;;5.55;3.70;;;3.30;83.40;;;;;;5016194;28;20065;-95
2021/01/07 02:24:52;;;;;;;4.70;3.00;;;3.30;83.40;;;;;;5015748;28;20037;-96
2021/01/07 02:27:18;;;;;;;5.93;3.45;;;3.40;83.50;;;;;;5013533;28;20065;-95
2021/01/07 02:29:43;;;;;;;4.70;3.42;;;3.40;83.60;;;;;;5009204;28;20026;-96
2021/01/07 02:32:09;;;;;;;5.00;3.38;;;3.30;83.40;;;;;;5015124;28;20038;-96
2021/01/07 02:34:35;;;;;;;5.97;3.72;;;3.40;83.40;;;;;;5014871;28;20091;-96
2021/01/07 02:37:01;;;;;;;5.30;3.60;;;3.40;83.50;;;;;;5011532;28;20026;-96
2021/01/07 02:39:26;;;;;;;5.38;3.90;;;3.40;83.50;;;;;;4993863;28;20022;-96
2021/01/07 02:41:56;;;;;;;6.10;3.47;;;3.40;83.50;;;;;;4993515;28;20035;-96
2021/01/07 02:44:22;;;;;;;6.13;3.70;;;3.40;83.50;;;;;;4991975;28;20023;-96
2021/01/07 02:46:49;;;;;;;4.65;3.45;;;3.40;83.50;;;;;;4993535;28;20125;-96
2021/01/07 02:49:15;;;;;;;5.97;3.83;;;3.40;83.40;;;;;;4994290;28;20034;-96
2021/01/07 02:51:40;;;;;;;4.45;3.10;;;3.50;84.10;;;;;;4994084;28;20038;-94
2021/01/07 02:54:07;;;;;;;4.15;3.15;;;3.50;83.30;;;;;;4996045;28;20036;-96
2021/01/07 02:56:33;;;;;;;5.03;3.78;;;3.50;83.30;;;;;;4995262;28;20046;-96
2021/01/07 02:58:59;;;;;;;5.70;3.67;;;3.50;83.20;;;;;;4998189;28;20029;-96
2021/01/07 03:01:24;;;;;;;4.88;3.28;;;3.50;83.30;;;;;;5011530;28;20023;-96
2021/01/07 03:03:50;;;;;;;4.82;3.60;;;3.50;83.30;;;;;;5015218;28;20026;-94
2021/01/07 03:06:16;;;;;;;5.95;3.75;;;3.50;83.30;;;;;;4997648;28;20041;-95
2021/01/07 03:08:42;;;;;;;4.20;2.97;;;3.50;83.30;;;;;;4993081;28;20077;-95
2021/01/07 03:11:08;;;;;;;4.32;3.40;;;3.60;83.40;;;;;;4992307;28;20035;-94
2021/01/07 03:13:34;;;;;;;4.18;3.05;;;3.50;84.00;;;;;;4990543;28;20026;-94
2021/01/07 03:15:59;;;;;;;5.00;3.10;;;3.50;83.30;;;;;;4990491;28;20060;-94
2021/01/07 03:18:25;;;;;;;4.85;3.42;;;3.60;83.40;;;;;;4991232;28;20056;-94
2021/01/07 03:20:50;;;;;;;4.85;3.40;;;3.60;83.50;;;;;;4992094;28;20066;-95
2021/01/07 03:23:17;;;;;;;4.03;3.20;;;3.60;83.50;;;;;;4990785;28;20031;-96
2021/01/07 03:25:42;;;;;;;5.13;3.45;;;3.60;83.50;;;;;;4991569;28;20039;-96
2021/01/07 03:28:08;;;;;;;5.78;3.72;;;3.60;83.40;;;;;;4991630;28;20030;-96
2021/01/07 03:30:33;;;;;;;4.53;3.25;;;3.60;83.30;;;;;;4992782;28;20018;-94
2021/01/07 03:32:59;;;;;;;5.10;3.50;;;3.60;83.30;;;;;;4995355;28;20065;-96
2021/01/07 03:35:24;;;;;;;5.65;4.03;;;3.60;83.40;;;;;;4991355;28;20392;-95
2021/01/07 03:37:50;;;;;;;4.85;3.50;;;3.60;83.40;;;;;;4993404;28;20039;-96
2021/01/07 03:40:16;;;;;;;5.88;4.10;;;3.70;83.50;;;;;;5004077;28;20073;-95
2021/01/07 03:42:41;;;;;;;4.85;3.55;;;3.70;83.50;;;;;;5018588;28;20070;-95
2021/01/07 03:45:08;;;;;;;4.28;3.08;;;3.60;83.40;;;;;;5015608;28;20034;-96
2021/01/07 03:47:33;;;;;;;4.55;3.53;;;3.70;83.60;;;;;;4996023;28;20101;-95
2021/01/07 03:49:59;;;;;;;5.40;3.65;;;3.70;83.50;;;;;;4995705;28;20035;-94
2021/01/07 03:52:24;;;;;;;4.13;3.30;;;3.70;83.50;;;;;;4994976;28;20198;-95
2021/01/07 03:54:51;;;;;;;4.68;3.20;;;3.70;83.40;;;;;;4994450;28;20088;-95
2021/01/07 03:57:17;;;;;;;4.38;3.05;;;3.70;83.40;;;;;;4994201;28;20027;-95
2021/01/07 03:59:42;;;;;;;5.07;3.38;;;3.70;84.10;;;;;;4995256;28;20045;-96
2021/01/07 04:02:08;;;;;;;4.28;3.40;;;3.70;83.40;;;;;;4993746;28;20026;-95
2021/01/07 04:04:33;;;;;;;3.47;2.80;;;3.60;83.30;;;;;;4992385;28;20030;-95
2021/01/07 04:06:59;;;;;;;4.78;3.47;;;3.60;83.40;;;;;;4994335;28;20265;-96
2021/01/07 04:09:25;;;;;;;4.20;3.22;;;3.60;83.90;;;;;;4994168;28;20019;-96
2021/01/07 04:11:51;;;;;;;3.30;2.55;;;3.60;83.30;;;;;;4995121;28;20026;-96
2021/01/07 04:14:17;;;;;;;4.38;3.00;;;3.60;83.40;;;;;;4993546;28;20018;-95
2021/01/07 04:16:43;;;;;;;3.92;3.10;;;3.50;83.50;;;;;;4994407;28;20026;-95
2021/01/07 04:19:08;;;;;;;3.50;2.78;;;3.60;83.50;;;;;;4994024;28;20149;-94
2021/01/07 04:21:44;;;;;;;3.88;2.80;;;3.60;83.50;;;;;;4995491;28;20150;-95
2021/01/07 04:24:12;;;;;;;5.03;3.25;;;3.60;83.40;;;;;;4991664;28;20022;-95
2021/01/07 04:26:44;;;;;;;3.75;2.85;;;3.60;83.40;;;;;;4978701;28;20389;-95
2021/01/07 04:29:11;;;;;;;3.70;2.80;;;3.60;83.30;;;;;;4991353;28;20130;-94
2021/01/07 04:31:36;;;;;;;4.10;3.13;;;3.60;83.30;;;;;;4989529;28;20344;-94
2021/01/07 04:34:02;;;;;;;5.03;3.35;;;3.60;83.40;;;;;;4995895;28;20014;-95
2021/01/07 04:36:28;;;;;;;4.00;2.80;;;3.60;83.40;;;;;;5007963;28;20010;-94
2021/01/07 04:38:54;;;;;;;4.30;2.90;;;3.60;83.40;;;;;;5010429;28;20077;-96
2021/01/07 04:41:21;;;;;;;3.47;2.65;;;3.70;83.50;;;;;;4993825;28;20053;-96
2021/01/07 04:43:47;;;;;;;4.65;3.15;;;3.70;83.50;;;;;;4992350;28;20030;-95
2021/01/07 04:46:13;;;;;;;4.40;3.05;;;3.70;83.40;;;;;;4993595;28;20041;-95
2021/01/07 04:48:39;;;;;;;4.85;3.13;;;3.60;83.40;;;;;;4995149;28;20108;-96
2021/01/07 04:51:05;;;;;;;4.53;3.20;;;3.70;83.40;;;;;;4992936;28;20022;-95
2021/01/07 04:53:30;;;;;;;5.70;3.55;;;3.70;83.50;;;;;;4992427;28;20088;-96
2021/01/07 04:55:56;;;;;;;3.75;2.92;;;3.70;83.40;;;;;;4994261;28;20493;-96
2021/01/07 04:58:22;;;;;;;6.50;4.30;;;3.70;83.40;;;;;;4993944;28;20037;-96
2021/01/07 05:00:48;;;;;;;5.53;3.40;;;3.60;83.30;;;;;;4992944;28;20484;-96
2021/01/07 05:03:21;;;;;;;6.40;3.30;;;3.80;83.50;;;;;;4993308;28;20026;-95
2021/01/07 05:05:49;;;;;;;5.63;4.03;;;3.70;83.50;;;;;;4994002;28;20502;-96
2021/01/07 05:08:19;;;;;;;6.25;3.95;;;3.60;83.70;;;;;;4996072;28;20027;-96
2021/01/07 05:10:49;;;;;;;5.53;3.60;;;3.60;83.40;;;;;;4995339;28;20067;-95
2021/01/07 05:13:17;;;;;;;6.25;4.25;;;3.60;83.50;;;;;;4991423;28;20092;-95
2021/01/07 05:15:42;;;;;;;6.10;4.07;;;3.60;83.40;;;;;;4991169;28;20023;-96
2021/01/07 05:18:09;;;;;;;5.18;3.55;;;3.60;83.50;;;;;;4994669;28;20519;-95
2021/01/07 05:20:35;;;;;;;6.07;3.90;;;3.60;84.00;;;;;;4992923;28;20022;-96
2021/01/07 05:23:01;;;;;;;5.28;3.83;;;3.60;83.60;;;;;;4982187;28;20035;-96
2021/01/07 05:25:29;;;;;;;6.13;4.50;;;3.70;83.60;;;;;;4972771;28;20034;-95
2021/01/07 05:27:58;;;;;;;6.45;4.30;;;3.60;83.50;;;;;;4992197;28;20030;-95
2021/01/07 05:30:26;;;;;;;4.32;3.28;;;3.60;83.50;;;;;;4990940;28;20105;-96
2021/01/07 05:32:57;;;;;;;4.70;3.42;;;3.60;83.60;;;;;;4990850;28;20042;-95
2021/01/07 05:36:20;;;;;;;5.63;3.92;;;3.60;83.60;;;;;;4995880;28;20057;-96
2021/01/07 05:38:55;;;;;;;5.35;3.75;;;3.70;83.60;;;;;;4980706;28;20038;-96
2021/01/07 05:41:42;;;;;;;5.40;3.88;;;3.60;83.60;;;;;;5018183;28;20030;-96
2021/01/07 05:44:28;;;;;;;4.97;3.78;;;3.70;83.70;;;;;;5017165;28;20042;-96
2021/01/07 05:47:41;;;;;;;4.95;3.60;;;3.60;83.70;;;;;;5006902;28;20041;-96
2021/01/07 05:50:20;;;;;;;4.75;3.30;;;3.70;83.70;;;;;;4966516;28;20030;-96
2021/01/07 05:52:48;;;;;;;4.28;3.17;;;3.70;83.70;;;;;;4989688;28;20128;-95
2021/01/07 05:55:18;;;;;;;4.45;3.25;;;3.60;83.70;;;;;;5000970;28;20018;-96
2021/01/07 05:57:45;;;;;;;5.13;3.53;;;3.60;83.70;;;;;;4997839;28;20030;-96
2021/01/07 06:00:16;;;;;;;5.63;3.25;;;3.70;83.80;;;;;;4993619;28;20117;-95
2021/01/07 06:02:43;;;;;;;4.07;3.17;;;3.60;83.80;;;;;;4994329;28;20034;-95
2021/01/07 06:05:11;;;;;;;5.68;3.47;;;3.60;83.80;;;;;;5014056;28;20034;-96
2021/01/07 06:07:40;;;;;;;5.68;3.15;;;3.70;83.80;;;;;;5018320;28;20027;-96
2021/01/07 06:10:10;;;;;;;3.92;3.00;;;3.60;83.70;;;;;;5004580;28;20034;-94
2021/01/07 06:18:47;;;;;;;3.58;2.67;;;3.70;83.80;;;;;;5421079;23;20057;-96
2021/01/07 06:21:01;;;;;;;4.20;2.90;;;3.50;83.70;;;;;;5008072;28;20056;-96
2021/01/07 06:23:37;;;;;;;4.32;3.03;;;3.70;83.80;;;;;;5012949;28;20022;-95
2021/01/07 06:26:35;;;;;;;5.20;3.45;;;3.70;83.80;;;;;;5003214;28;20026;-96
2021/01/07 06:29:00;;;;;;;5.65;3.40;;;3.70;83.90;;;;;;4977965;28;20507;-96
2021/01/07 06:31:38;;;;;;;4.10;2.80;;;3.70;83.80;;;;;;4994405;28;20019;-95
2021/01/07 06:34:14;;;;;;;4.10;2.83;;;3.70;83.90;;;;;;4999660;28;20033;-96
2021/01/07 06:37:06;;;;;;;4.68;3.17;;;3.70;83.90;;;;;;5001376;28;20018;-96
2021/01/07 06:40:03;;;;;;;4.95;3.40;;;3.70;83.90;;;;;;5004205;28;20035;-96
2021/01/07 06:42:38;;;;;;;5.85;4.05;;;3.70;83.80;;;;;;5002060;28;20034;-96
2021/01/07 06:45:22;;;;;;;4.13;3.20;;;3.80;83.80;;;;;;5003728;28;20025;-96
2021/01/07 06:47:53;;;;;;;4.43;3.30;;;3.70;83.80;;;;;;4991798;28;20034;-96
2021/01/07 06:50:35;;;;;;;6.78;4.18;;;3.70;83.80;;;;;;5008108;28;20262;-96
2021/01/07 06:53:04;;;;;;;4.85;3.50;;;3.70;83.80;;;;;;5015526;28;20057;-95
2021/01/07 06:55:29;;;;;;;4.72;3.40;;;3.70;83.80;;;;;;5008637;28;20014;-93
2021/01/07 06:57:56;;;;;;;4.50;3.47;;;3.80;83.90;;;;;;5011242;28;20027;-94
2021/01/07 07:00:32;;;;;;;4.22;2.92;;;3.70;83.80;;;;;;5005737;28;20030;-94
2021/01/07 07:02:59;;;;;;;4.88;3.40;;;3.70;83.90;;;;;;5009628;28;20586;-89
2021/01/07 07:05:32;;;;;;;5.70;4.07;;;3.70;83.90;;;;;;5011819;28;20028;-95
2021/01/07 07:08:21;;;;;;;;;;;3.70;83.90;;;;;;4994074;28;20164;-91
2021/01/07 07:11:16;;;;;;;3.35;2.50;;;3.70;83.90;;;;;;4992991;28;19916;-96
2021/01/07 07:13:43;;;;;;;3.88;2.92;;;3.70;84.10;;;;;;4991256;28;20026;-96
2021/01/07 07:16:36;;;;;;;4.10;2.80;;;3.70;84.00;;;;;;4996783;28;20019;-96
2021/01/07 07:19:05;;;;;;;4.60;3.10;;;3.80;84.10;;;;;;4995917;28;20034;-95
2021/01/07 07:21:31;;;;;;;5.25;3.20;;;3.80;84.10;;;;;;4996818;28;20131;-93
2021/01/07 07:24:18;;;;;;;5.45;3.58;;;3.80;84.00;;;;;;4987344;28;20046;-93
2021/01/07 07:27:39;;;;;;;4.53;2.70;;;3.80;84.00;;;;;;4997924;28;20026;-95
2021/01/07 07:30:06;;;;;;;4.00;2.90;;;3.80;84.00;;;;;;4982366;28;20134;-95
2021/01/07 07:32:32;;;;;;;3.28;2.65;;;3.80;83.90;;;;;;4998737;28;20102;-92
2021/01/07 07:34:58;;;;;;;3.47;2.88;;;3.80;84.00;;;;;;4996825;28;20474;-93
2021/01/07 07:37:28;;;;;;;3.75;2.70;;;3.80;84.00;;;;;;5003417;28;20015;-96
2021/01/07 07:44:54;;;;;;;4.10;2.85;;;3.70;84.00;;;;;;5012693;28;20043;-94
2021/01/07 07:47:22;;;;;;;3.90;2.92;;;3.80;84.10;;;;;;5008279;28;20038;-96
2021/01/07 07:49:57;;;;;;;3.40;2.42;;;3.80;84.80;;;;;;5005783;28;20030;-95
2021/01/07 07:52:25;;;;;;;3.72;2.50;;;3.80;84.10;;;;;;4999742;28;20102;-96
2021/01/07 07:55:30;;;;;;;;;;;;;;;;;;;;;
2021/01/07 07:58:27;;;;;;;4.40;2.85;;;3.80;84.10;;;;;;4999970;28;20109;-95
2021/01/07 08:00:56;;;;;;;3.60;2.70;;;3.80;84.10;;;;;;4996660;28;20049;-95
2021/01/07 08:03:39;;;;;;;;;;;3.80;84.20;;;;;;5013973;28;20018;-95
2021/01/07 08:06:05;;;;;;;3.15;2.35;;;3.80;84.10;;;;;;5010663;28;19910;-92
2021/01/07 08:08:55;;;;;;;2.90;2.40;;;3.80;84.10;;;;;;5008112;28;20023;-93
2021/01/07 08:14:34;;;;;;;4.28;3.17;;;3.80;84.10;;;;;;4965860;28;20011;-95
2021/01/07 08:17:07;;;;;;;3.78;2.80;;;3.80;84.10;;;;;;4988602;28;20134;-96
2021/01/07 08:19:35;;;;;;;3.65;2.60;;;3.80;84.80;;;;;;5002978;28;20046;-94
2021/01/07 08:22:02;;;;;;;3.50;2.40;;;4.00;84.20;;;;;;5002077;28;20096;-91
2021/01/07 08:24:28;;;;;;;4.07;2.95;;;3.80;84.10;;;;;;5000668;28;20030;-93
2021/01/07 08:27:13;;;;;;;2.90;2.50;;;3.80;84.10;;;;;;5001915;28;20130;-95
2021/01/07 08:29:43;;;;;;;2.78;2.10;;;3.80;84.10;;;;;;4992946;28;20037;-93
2021/01/07 08:32:15;;;;;;;2.60;2.20;;;3.80;84.00;;;;;;5004551;28;20019;-94
2021/01/07 08:35:05;;;;;;;3.92;2.72;;;4.00;84.20;;;;;;5001847;28;20070;-96
2021/01/07 08:38:24;;;;;;;3.20;2.20;;;3.90;84.10;;;;;;5010400;28;20037;-96
2021/01/07 08:41:33;;;;;;;3.47;2.75;;;3.90;84.00;;;;;;4965957;29;20055;-96
2021/01/07 08:44:08;;;;;;;3.83;2.80;;;3.90;84.00;;;;;;4965367;29;20054;-94
2021/01/07 08:46:44;;;;;;;4.30;2.90;;;3.80;84.10;;;;;;4962071;29;20039;-92
2021/01/07 08:49:18;;;;;;;4.25;2.78;;;3.80;84.10;;;;;;4961539;29;20031;-92
2021/01/07 08:52:08;;;;;;;3.05;2.40;;;3.90;84.20;;;;;;4997486;28;20031;-95
2021/01/07 08:54:35;;;;;;;1.70;1.55;;;3.90;84.20;;;;;;5005795;28;20030;-92
2021/01/07 09:08:08;;;;;;;;;;;;;;;;;;;;;
2021/01/07 09:11:15;;;;;;;3.95;3.13;;;4.10;84.40;;;;;;5020503;28;20086;-91
2021/01/07 09:14:03;;;;;;;2.70;2.25;;;4.10;84.30;;;;;;5007448;28;20054;-90
2021/01/07 09:16:29;;;;;;;5.32;3.38;;;4.00;84.10;;;;;;4996145;28;20034;-90
2021/01/07 09:19:05;;;;;;;3.72;2.92;;;4.10;84.10;;;;;;4999981;28;20530;-92
2021/01/07 09:21:33;;;;;;;4.75;3.15;;;4.20;84.20;;;;;;4986227;28;20047;-92
2021/01/07 09:23:59;;;;;;;6.57;4.20;;;4.20;84.20;;;;;;4985569;28;20050;-91
2021/01/07 09:26:29;;;;;;;3.75;2.60;;;4.20;84.20;;;;;;4995897;28;20050;-90
2021/01/07 09:28:54;;;;;;;3.65;3.00;;;4.20;84.10;;;;;;4989237;28;20022;-91
2021/01/07 09:31:21;;;;;;;3.22;2.70;;;4.30;84.00;;;;;;4987583;28;20091;-91
2021/01/07 09:33:46;;;;;;;3.83;2.78;;;4.30;84.00;;;;;;4981058;28;20392;-90
2021/01/07 09:36:12;;;;;;;3.55;2.65;;;4.30;83.90;;;;;;5008183;28;20052;-92
2021/01/07 09:38:38;;;;;;;4.47;3.40;;;4.40;83.90;;;;;;4990157;28;20026;-91
2021/01/07 09:41:04;;;;;;;5.05;3.05;;;4.40;83.90;;;;;;4991536;28;20057;-90
2021/01/07 09:43:34;;;;;;;3.00;2.47;;;4.30;83.80;;;;;;4990770;28;20069;-90
2021/01/07 09:45:59;;;;;;;2.67;2.20;;;4.40;84.00;;;;;;4993030;28;20074;-92
2021/01/07 09:48:40;;;;;;;2.70;2.22;;;4.40;84.10;;;;;;4990789;28;20528;-89
2021/01/07 09:51:06;;;;;;;2.88;2.22;;;4.30;84.10;;;;;;4991453;28;20819;-89
2021/01/07 09:53:31;;;;;;;2.53;2.15;;;4.30;84.10;;;;;;4994375;28;20037;-90
2021/01/07 09:56:26;;;;;;;2.10;1.90;;;4.40;84.10;;;;;;4989268;28;20031;-92
2021/01/07 09:59:01;;;;;;;3.53;2.42;;;4.40;84.00;;;;;;4999227;28;20038;-92
2021/01/07 10:01:26;;;;;;;1.60;1.50;;;4.40;84.60;;;;;;5006846;28;20030;-92
2021/01/07 10:03:52;;;;;;;2.80;2.30;;;4.30;83.90;;;;;;5011603;28;20041;-91
2021/01/07 10:06:21;;;;;;;2.15;1.80;;;4.40;84.00;;;;;;4992072;28;20053;-91
2021/01/07 10:08:47;;;;;;;3.22;2.30;;;4.40;84.00;;;;;;4990832;28;20483;-90
2021/01/07 10:11:22;;;;;;;1.90;1.50;;;4.30;83.90;;;;;;4993007;28;20026;-92
2021/01/07 10:13:49;;;;;;;3.20;2.50;;;4.40;84.10;;;;;;4991180;28;20069;-92
2021/01/07 10:16:15;;;;;;;3.08;2.13;;;4.40;84.10;;;;;;4996231;28;20479;-90
2021/01/07 10:18:41;;;;;;;2.92;2.00;;;4.40;84.10;;;;;;4991851;28;20033;-91
2021/01/07 10:21:10;;;;;;;2.35;1.95;;;4.50;84.20;;;;;;4991451;28;20433;-92
2021/01/07 10:23:40;;;;;;;2.50;2.00;;;4.50;84.00;;;;;;4990000;28;20027;-92
2021/01/07 10:26:05;;;;;;;2.85;2.40;;;4.60;84.00;;;;;;4991368;28;20036;-93
2021/01/07 10:28:33;;;;;;;2.05;1.85;;;4.60;83.90;;;;;;4992659;28;20364;-91
2021/01/07 10:30:59;;;;;;;2.47;2.17;;;4.60;83.90;;;;;;4987081;28;20037;-92
2021/01/07 10:33:24;;;;;;;2.45;2.25;;;4.70;84.00;;;;;;5000212;28;20006;-93
2021/01/07 10:35:50;;;;;;;2.97;2.55;;;4.60;83.80;;;;;;4997552;28;20395;-91
2021/01/07 10:38:23;;;;;;;2.65;2.20;;;4.60;83.90;;;;;;4991771;28;20026;-93
2021/01/07 10:40:51;;;;;;;2.85;2.13;;;4.60;84.00;;;;;;4989035;28;20039;-91
2021/01/07 10:43:20;;;;;;;2.05;1.85;;;4.60;84.00;;;;;;4987577;28;20026;-91
2021/01/07 10:45:51;;;;;;;2.50;2.00;;;4.70;84.10;;;;;;5004849;28;20023;-92
2021/01/07 10:48:22;;;;;;;2.05;1.85;;;4.70;84.00;;;;;;4989060;28;20090;-91
2021/01/07 10:50:49;;;;;;;2.42;2.00;;;4.80;84.00;;;;;;4992581;28;20049;-91
2021/01/07 10:53:43;;;;;;;2.20;1.85;;;4.80;83.90;;;;;;4993074;28;20042;-91
2021/01/07 10:56:25;;;;;;;2.05;1.67;;;4.80;83.90;;;;;;4994630;28;20084;-93
2021/01/07 10:59:09;;;;;;;2.08;1.88;;;4.90;83.90;;;;;;4992603;28;20065;-92
2021/01/07 11:02:14;;;;;;;;;;;;;;;;;;;;;
2021/01/07 11:05:00;;;;;;;2.63;2.15;;;4.90;83.80;;;;;;4996299;28;20038;-93
2021/01/07 11:07:48;;;;;;;3.58;2.08;;;4.90;83.80;;;;;;5003010;28;20026;-91
2021/01/07 11:10:15;;;;;;;2.78;2.20;;;4.90;83.80;;;;;;5010711;28;20097;-92
2021/01/07 11:38:26;;;;;;;;;;;;;;;;;;;;;
2021/01/07 11:41:50;;;;;;;1.70;1.48;;;5.00;84.30;;;;;;4913396;29;20048;-90
2021/01/07 11:45:20;;;;;;;;;;;;;;;;;;;;;
2021/01/07 11:48:48;;;;;;;1.88;1.48;;;4.90;84.20;;;;;;4949025;28;20043;-88
2021/01/07 11:55:35;;;;;;;1.65;1.40;;;4.90;84.20;;;;;;4955471;28;20592;-91
2021/01/07 11:58:30;;;;;;;2.00;1.70;;;4.90;84.10;;;;;;4965958;28;20069;-89
2021/01/07 12:00:57;;;;;;;1.50;1.40;;;4.90;84.10;;;;;;4989164;28;20042;-92
2021/01/07 12:04:19;;;;;;;1.70;1.27;;;4.90;84.20;;;;;;4990109;28;20504;-92
2021/01/07 12:07:24;;;;;;;2.13;1.88;;;4.90;84.20;;;;;;4982858;28;20049;-91
2021/01/07 12:09:49;;;;;;;1.40;1.30;;;4.80;84.10;;;;;;4982684;28;20042;-92
2021/01/07 12:12:16;;;;;;;2.22;1.20;;;5.00;84.10;;;;;;4995524;28;20081;-91
2021/01/07 12:14:49;;;;;;;1.10;1.00;;;4.90;84.10;;;;;;4997637;28;20110;-89
2021/01/07 12:17:23;;;;;;;1.30;1.20;;;4.90;84.10;;;;;;5011976;28;20045;-90
2021/01/07 12:19:49;;;;;;;1.13;1.05;;;5.00;84.10;;;;;;4991359;28;20074;-90
2021/01/07 12:22:16;;;;;;;1.58;1.38;;;4.90;84.10;;;;;;4992358;28;20031;-89
2021/01/07 12:24:45;;;;;;;1.30;1.20;;;4.90;84.20;;;;;;4993174;28;20030;-89
2021/01/07 12:27:11;;;;;;;1.00;1.00;;;5.00;84.30;;;;;;4992292;28;20113;-89
2021/01/07 12:29:38;;;;;;;0.70;0.70;;;5.00;84.10;;;;;;4991663;28;20113;-90
2021/01/07 12:32:13;;;;;;;0.90;0.90;;;5.00;84.10;;;;;;4992713;28;20607;-88
2021/01/07 12:35:06;;;;;;;1.13;0.90;;;5.00;84.10;;;;;;4983644;28;20058;-92
2021/01/07 12:38:04;;;;;;;0.90;0.90;;;5.00;84.30;;;;;;4990699;28;20026;-91
2021/01/07 12:40:34;;;;;;;0.80;0.80;;;5.10;84.20;;;;;;4998557;28;20320;-92
2021/01/07 12:42:59;;;;;;;1.00;0.90;;;5.10;84.20;;;;;;4998374;28;20475;-91
2021/01/07 12:45:27;;;;;;;1.10;1.00;;;5.00;84.10;;;;;;4998184;28;20040;-94
2021/01/07 12:47:58;;;;;;;0.80;0.80;;;5.00;84.20;;;;;;5000198;28;20029;-91
2021/01/07 12:50:24;;;;;;;0.90;0.90;;;5.10;84.30;;;;;;4997417;28;20046;-93
2021/01/07 12:52:51;;;;;;;1.10;1.00;;;5.10;84.20;;;;;;4998510;28;20034;-91
2021/01/07 12:55:17;;;;;;;2.53;0.90;;;5.10;84.20;;;;;;4998389;28;20029;-91
2021/01/07 12:57:49;;;;;;;1.60;0.90;;;5.10;84.30;;;;;;5005551;28;20100;-91
2021/01/07 13:04:36;;;;;;;2.90;1.08;;;5.20;84.30;;;;;;4952350;28;20039;-92
2021/01/07 13:10:47;;;;;;;;;;;;;;;;;;;;;
2021/01/07 13:14:01;;;;;;;1.85;1.10;;;5.20;84.90;;;;;;4990608;28;20026;-91
2021/01/07 13:19:24;;;;;;;1.63;0.90;;;5.20;84.40;;;;;;4980734;28;20034;-92
2021/01/07 13:21:50;;;;;;;2.08;1.25;;;5.20;84.50;;;;;;4991474;28;20034;-92
2021/01/07 13:24:54;;;;;;;2.00;1.10;;;5.30;84.50;;;;;;4991557;28;20030;-91
2021/01/07 13:27:21;;;;;;;0.98;0.98;;;5.30;84.30;;;;;;4992372;28;20019;-92
2021/01/07 13:29:47;;;;;;;1.75;1.15;;;5.30;84.30;;;;;;4990724;28;20062;-91
2021/01/07 13:32:13;;;;;;;1.55;1.00;;;5.30;84.30;;;;;;5008165;28;20018;-92
2021/01/07 13:34:40;;;;;;;1.13;1.00;;;5.40;84.40;;;;;;4971439;28;20048;-91
2021/01/07 13:37:08;;;;;;;1.65;1.10;;;5.30;84.30;;;;;;4989911;28;20018;-92
2021/01/07 13:39:47;;;;;;;;;;;;;;;;;;;;;
2021/01/07 13:45:51;;;;;;;2.42;1.20;;;5.30;84.50;;;;;;4973015;28;20037;-91
2021/01/07 13:48:20;;;;;;;2.00;1.02;;;5.30;84.50;;;;;;5012668;28;20022;-92
2021/01/07 13:51:05;;;;;;;1.55;1.00;;;5.20;84.60;;;;;;4993556;28;20034;-91
2021/01/07 13:54:27;;;;;;;0.82;0.80;;;5.20;84.70;;;;;;4989825;28;20089;-92
2021/01/07 14:00:05;;;;;;;2.17;1.33;;;5.20;84.70;;;;;;4983036;28;20042;-91
2021/01/07 14:02:31;;;;;;;3.15;1.98;;;5.20;84.80;;;;;;4995095;28;20049;-91
2021/01/07 14:04:57;;;;;;;2.22;1.40;;;5.20;84.80;;;;;;4997583;28;20025;-91
2021/01/07 14:07:29;;;;;;;1.42;1.00;;;5.20;84.90;;;;;;4989351;28;20030;-93
2021/01/07 14:10:00;;;;;;;1.45;1.20;;;5.40;84.90;;;;;;4990247;28;20416;-92
2021/01/07 14:12:30;;;;;;;2.17;1.40;;;5.30;84.80;;;;;;4999166;28;20019;-91
2021/01/07 14:14:57;;;;;;;1.58;1.27;;;5.30;84.80;;;;;;5003338;28;20057;-90
2021/01/07 14:17:23;;;;;;;3.38;1.50;;;5.30;84.70;;;;;;4999778;28;20037;-93
2021/01/07 14:20:02;;;;;;;2.35;1.42;;;5.30;84.80;;;;;;4995328;28;20031;-93
2021/01/07 14:22:28;;;;;;;2.80;1.30;;;5.20;84.80;;;;;;4998774;28;20038;-93
2021/01/07 14:24:55;;;;;;;2.20;1.50;;;5.30;84.90;;;;;;4986271;28;20040;-93
2021/01/07 14:27:37;;;;;;;2.00;1.42;;;5.40;85.00;;;;;;5004341;28;20099;-91
2021/01/07 14:30:06;;;;;;;1.90;1.70;;;5.20;84.80;;;;;;5011641;28;20039;-92
2021/01/07 14:32:34;;;;;;;2.13;1.38;;;5.20;84.80;;;;;;5001473;28;20032;-93
2021/01/07 14:35:10;;;;;;;2.35;1.50;;;5.20;85.50;;;;;;4995950;28;20040;-91
2021/01/07 14:37:39;;;;;;;1.75;1.20;;;5.20;84.90;;;;;;4990202;28;20050;-92
2021/01/07 14:40:10;;;;;;;2.42;1.40;;;5.20;84.90;;;;;;4991040;28;20046;-88
2021/01/07 14:42:36;;;;;;;2.03;1.13;;;5.20;84.90;;;;;;4989868;28;20019;-91
2021/01/07 14:45:03;;;;;;;1.30;1.20;;;5.20;84.90;;;;;;4991573;28;20109;-88
2021/01/07 14:47:32;;;;;;;1.90;1.20;;;5.20;85.00;;;;;;4998689;28;20452;-89
2021/01/07 14:50:02;;;;;;;1.05;0.90;;;5.20;84.90;;;;;;4997948;28;20022;-90